^^
Datos históricos de la estación: Murcia-Puente Tocinos
Diario Informe para Mayo 02, 2021 Unidades:  Métrico    Ingés   Ambas
Diario Semanal Mensual Anual
  Máxima: Mínima: Promedio:
Temperatura: 21.6 °C 13.2 °C 17.5 °C
Punto de rocio: 12.1 °C 6.4 °C 10.4 °C
Humedad: 81.6% 51.7% 64%
Velocidad viento: 20.1km/h 0km/h 7.8km/h
Racha viento: 41.8km/h - -
Viento- - ESE
Presión: 1018.0 hPa 1012.8 hPa -
Precipitación: 0.0 mm    
 
 
Tabla de datos para Mayo 02, 2021
Hora Temperatura Punto de rocio Presión Viento Velocidad viento Racha viento Humedad Intensidad lluvia(por hora) Nubes
00:04 18.6 °C 8.8 °C 1013.2 hPa Sur 5 km/h 11.3 km/h 53% 0.0 mm
00:09 18.5 °C 8.9 °C 1013.2 hPa Sur 6.4 km/h 11.1 km/h 53.7% 0.0 mm
00:14 18.4 °C 9 °C 1013.3 hPa Sur 6.9 km/h 11.9 km/h 54.3% 0.0 mm
00:19 18.4 °C 9.2 °C 1013.3 hPa SSE 7.4 km/h 9.5 km/h 55% 0.0 mm
00:24 18.3 °C 9.1 °C 1013.3 hPa SE 7.6 km/h 9.7 km/h 55% 0.0 mm
00:29 18.3 °C 9.2 °C 1013.4 hPa ESE 6.2 km/h 8 km/h 55.2% 0.0 mm
00:34 18.3 °C 9.4 °C 1013.4 hPa ESE 5.8 km/h 8 km/h 56% 0.0 mm
00:39 18.2 °C 9.3 °C 1013.4 hPa ESE 5 km/h 8 km/h 56% 0.0 mm
00:44 18.2 °C 9.3 °C 1013.5 hPa ESE 4.7 km/h 8 km/h 56.2% 0.0 mm
00:49 18 °C 9.1 °C 1013.5 hPa ESE 3.6 km/h 8 km/h 56.2% 0.0 mm
00:54 17.9 °C 9.3 °C 1013.5 hPa ESE 3.2 km/h 3.7 km/h 57% 0.0 mm
00:59 17.8 °C 9.4 °C 1013.5 hPa ESE 0.7 km/h 3.9 km/h 57.9% 0.0 mm
01:04 17.8 °C 9.6 °C 1013.5 hPa Calm   3.7 km/h 58.9% 0.0 mm
01:09 17.7 °C 9.6 °C 1013.5 hPa Este 1.6 km/h 5.6 km/h 59% 0.0 mm
01:14 17.6 °C 9.5 °C 1013.6 hPa North 2.2 km/h 6.4 km/h 59% 0.0 mm
01:19 17.4 °C 9.6 °C 1013.6 hPa NO 3.4 km/h 8 km/h 59.9% 0.0 mm
01:24 17.2 °C 9.6 °C 1013.6 hPa North 3.9 km/h 8 km/h 60.7% 0.0 mm
01:29 17 °C 9.5 °C 1013.6 hPa North 4.4 km/h 8 km/h 61.2% 0.0 mm
01:34 16.8 °C 9.5 °C 1013.6 hPa NE 4.7 km/h 8 km/h 62% 0.0 mm
01:39 16.7 °C 9.4 °C 1013.6 hPa NE 4.7 km/h 8 km/h 62% 0.0 mm
01:44 16.7 °C 9.5 °C 1013.6 hPa NE 4.7 km/h 5 km/h 62.3% 0.0 mm
01:49 16.7 °C 9.4 °C 1013.5 hPa NE 3.3 km/h 5.6 km/h 62% 0.0 mm
01:54 16.7 °C 9.4 °C 1013.5 hPa NE 2.9 km/h 4.8 km/h 62% 0.0 mm
01:59 16.7 °C 9.4 °C 1013.5 hPa NE 2.4 km/h 7.6 km/h 62% 0.0 mm
02:04 16.7 °C 9.4 °C 1013.5 hPa ESE 2.2 km/h 8 km/h 62% 0.0 mm
02:09 16.7 °C 9.6 °C 1013.5 hPa SE 2.9 km/h 8 km/h 62.9% 0.0 mm
02:14 16.7 °C 9.7 °C 1013.5 hPa SO 3.2 km/h 4.8 km/h 63.4% 0.0 mm
02:19 16.6 °C 9.8 °C 1013.4 hPa SSO 3.2 km/h 5.8 km/h 64% 0.0 mm
02:24 16.6 °C 9.6 °C 1013.4 hPa SSO 3.2 km/h 6.4 km/h 63.2% 0.0 mm
02:29 16.5 °C 9.5 °C 1013.4 hPa SSO 3.7 km/h 6.4 km/h 63% 0.0 mm
02:34 16.5 °C 9.5 °C 1013.4 hPa SSO 3.9 km/h 7.4 km/h 63% 0.0 mm
02:39 16.5 °C 9.2 °C 1013.4 hPa Sur 3.9 km/h 8 km/h 62.2% 0.0 mm
02:44 16.5 °C 9.3 °C 1013.4 hPa SSO 3.9 km/h 8 km/h 62.6% 0.0 mm
02:49 16.6 °C 9.5 °C 1013.2 hPa SO 3.3 km/h 6.4 km/h 63% 0.0 mm
02:54 16.6 °C 9.5 °C 1013.2 hPa SO 3.2 km/h 3.7 km/h 63% 0.0 mm
02:59 16.6 °C 9.5 °C 1013.2 hPa SO 0.9 km/h   63% 0.0 mm
03:04 16.6 °C 9.5 °C 1012.9 hPa Calm     63% 0.0 mm
03:09 16.5 °C 9.6 °C 1012.9 hPa Calm   7.4 km/h 63.9% 0.0 mm
03:14 16.3 °C 9.5 °C 1012.9 hPa Calm   8 km/h 64.3% 0.0 mm
03:19 16 °C 9.5 °C 1012.9 hPa Este 3.3 km/h 7.4 km/h 65.5% 0.0 mm
03:24 15.7 °C 9.5 °C 1012.9 hPa Este 4.7 km/h 8 km/h 66.6% 0.0 mm
03:29 15.7 °C 9.4 °C 1012.9 hPa SE 3.5 km/h 7.4 km/h 66.2% 0.0 mm
03:34 15.6 °C 9.5 °C 1012.9 hPa ESE 3.2 km/h 7.4 km/h 66.9% 0.0 mm
03:39 15.6 °C 9.5 °C 1012.9 hPa ESE 3.7 km/h 8 km/h 67% 0.0 mm
03:44 15.5 °C 9.4 °C 1012.9 hPa SSE 3.9 km/h 6.4 km/h 67% 0.0 mm
03:49 15.6 °C 9.5 °C 1012.8 hPa Sur 3.3 km/h 6.4 km/h 67% 0.0 mm
03:54 15.6 °C 9.5 °C 1012.8 hPa Sur 3.2 km/h 4.7 km/h 67% 0.0 mm
03:59 15.6 °C 9.5 °C 1012.8 hPa Sur 2.5 km/h 5.6 km/h 67% 0.0 mm
04:04 15.6 °C 9.5 °C 1012.8 hPa SSE 2.2 km/h 5.8 km/h 67% 0.0 mm
04:09 15.7 °C 9.6 °C 1012.8 hPa SE 3.5 km/h 6.4 km/h 67% 0.0 mm
04:14 15.6 °C 9.5 °C 1012.9 hPa SE 3.9 km/h 6.4 km/h 67% 0.0 mm
04:19 15.6 °C 9.5 °C 1012.9 hPa SE 3.9 km/h 7.4 km/h 67% 0.0 mm
04:24 15.4 °C 9.4 °C 1012.9 hPa SSE 3.9 km/h 8 km/h 67.6% 0.0 mm
04:29 15.4 °C 9.3 °C 1012.9 hPa Sur 3.9 km/h 5.6 km/h 67% 0.0 mm
04:34 15.4 °C 9.2 °C 1012.8 hPa SE 3.9 km/h 8.4 km/h 66.6% 0.0 mm
04:39 15.4 °C 9.1 °C 1012.8 hPa SSE 4.5 km/h 8 km/h 66% 0.0 mm
04:44 15.5 °C 9.2 °C 1012.8 hPa SSE 4.6 km/h 8 km/h 66% 0.0 mm
04:49 15.5 °C 9.1 °C 1012.8 hPa SE 4.7 km/h 7.4 km/h 66% 0.0 mm
04:54 15.3 °C 9 °C 1012.8 hPa SE 4.7 km/h 8 km/h 66% 0.0 mm
04:59 15.2 °C 9.1 °C 1012.9 hPa SE 4 km/h 8 km/h 67% 0.0 mm
05:04 15.1 °C 9.1 °C 1012.9 hPa SE 3.9 km/h 4.8 km/h 67.4% 0.0 mm
05:09 15 °C 9.2 °C 1012.9 hPa SE 2.7 km/h 3.9 km/h 68.5% 0.0 mm
05:14 14.9 °C 9.3 °C 1012.9 hPa SE 2.2 km/h 3.9 km/h 69% 0.0 mm
05:19 14.8 °C 9.2 °C 1012.9 hPa SE 2.2 km/h 3.9 km/h 69.2% 0.0 mm
05:24 14.7 °C 9.1 °C 1012.9 hPa SE 2.2 km/h 4.7 km/h 69% 0.0 mm
05:29 14.7 °C 9.1 °C 1013.1 hPa SE 0.6 km/h 5.6 km/h 69.4% 0.0 mm
05:34 14.7 °C 9.4 °C 1013.1 hPa Calm   5.6 km/h 71% 0.0 mm
05:39 14.6 °C 9.6 °C 1013.1 hPa NNO 2.3 km/h 5.6 km/h 72% 0.0 mm
05:44 14.4 °C 9.5 °C 1013.1 hPa NNO 2.9 km/h 4.8 km/h 72.6% 0.0 mm
05:49 14.3 °C 9.5 °C 1013.1 hPa NNO 2.5 km/h 3.7 km/h 73% 0.0 mm
05:54 14.2 °C 9.4 °C 1013.1 hPa NNO 2.2 km/h   73% 0.0 mm
05:59 14.1 °C 9.5 °C 1013.2 hPa NNO 0.4 km/h 5.6 km/h 73.8% 0.0 mm
06:04 14.1 °C 9.5 °C 1013.2 hPa Calm   5.6 km/h 74% 0.0 mm
06:09 13.9 °C 9.3 °C 1013.2 hPa NNO 2.3 km/h 4.8 km/h 73.7% 0.0 mm
06:14 13.8 °C 8.8 °C 1013.2 hPa NNO 3.2 km/h 3.7 km/h 72% 0.0 mm
06:19 13.7 °C 8.6 °C 1013.2 hPa NNO 2.5 km/h 3.9 km/h 71% 0.0 mm
06:24 13.7 °C 8.4 °C 1013.2 hPa NNO 2.2 km/h 3.7 km/h 70.5% 0.0 mm
06:29 13.6 °C 8.3 °C 1013.4 hPa NNO 0.6 km/h 3.7 km/h 70.3% 0.0 mm
06:34 13.6 °C 8.4 °C 1013.4 hPa Calm   3.7 km/h 71% 0.0 mm
06:39 13.6 °C 8.3 °C 1013.4 hPa Calm   3.7 km/h 70.3% 0.0 mm
06:44 13.6 °C 8.3 °C 1013.7 hPa Calm   7.4 km/h 70.5% 0.0 mm
06:49 13.6 °C 7.9 °C 1013.7 hPa SSE 2.1 km/h 8 km/h 68.4% 0.0 mm
06:54 13.6 °C 7.8 °C 1013.7 hPa SSE 2.9 km/h 6.4 km/h 68% 0.0 mm
06:59 13.6 °C 7.7 °C 1013.7 hPa SSE 3.2 km/h 5.8 km/h 67.5% 0.0 mm
07:04 13.6 °C 7.6 °C 1013.7 hPa ESE 3.2 km/h 6.4 km/h 66.9% 0.0 mm
07:09 13.6 °C 7.2 °C 1013.7 hPa SSE 3.2 km/h 7.4 km/h 65.3% 0.0 mm
07:14 13.5 °C 7.6 °C 1014.0 hPa Oeste 3.2 km/h 8 km/h 67.2% 0.0 mm
07:19 13.3 °C 7.9 °C 1014.0 hPa NO 3.2 km/h 8 km/h 69.4% 0.0 mm
07:24 13.2 °C 8 °C 1014.0 hPa NO 3.2 km/h 3.7 km/h 70.5% 0.0 mm
07:29 13.2 °C 8 °C 1014.1 hPa NO 0.8 km/h 3.7 km/h 71% 0.0 mm
07:34 13.2 °C 8.1 °C 1014.1 hPa Calm   4.7 km/h 71.4% 0.0 mm
07:39 13.2 °C 8.2 °C 1014.1 hPa SO 1.8 km/h 6.4 km/h 71.8% 0.0 mm
07:44 13.3 °C 8.3 °C 1014.2 hPa SSO 2.2 km/h 8.4 km/h 71.7% 0.0 mm
07:49 13.4 °C 8.1 °C 1014.2 hPa SO 4.1 km/h 8 km/h 70.5% 0.0 mm
07:54 13.4 °C 8.1 °C 1014.2 hPa SO 4.7 km/h 7.4 km/h 70% 0.0 mm
07:59 13.5 °C 8.4 °C 1014.5 hPa SO 4.6 km/h 8 km/h 71.3% 0.0 mm
08:04 13.6 °C 8.7 °C 1014.5 hPa SSO 4.6 km/h 8 km/h 72% 0.0 mm
08:09 13.8 °C 8.7 °C 1014.5 hPa SO 3.4 km/h 4.8 km/h 71.6% 0.0 mm
08:14 14.2 °C 8.9 °C 1014.8 hPa NNE 2.9 km/h 8.4 km/h 70.7% 0.0 mm
08:19 14.4 °C 8.9 °C 1014.8 hPa NE 3.1 km/h 8 km/h 69.4% 0.0 mm
08:24 14.5 °C 8.5 °C 1014.8 hPa ENE 3.2 km/h 8 km/h 67.3% 0.0 mm
08:29 14.4 °C 7.8 °C 1014.9 hPa Este 3.7 km/h 8 km/h 64.7% 0.0 mm
08:34 14.4 °C 7.7 °C 1014.9 hPa ESE 3.9 km/h 8 km/h 64% 0.0 mm
08:39 14.6 °C 7.5 °C 1014.9 hPa SE 4.7 km/h 8.4 km/h 62.5% 0.0 mm
08:44 14.7 °C 7 °C 1015.0 hPa SSE 5 km/h 8.7 km/h 60% 0.0 mm
08:49 14.8 °C 6.4 °C 1015.0 hPa SSE 5.6 km/h 9.7 km/h 57.4% 0.0 mm
08:54 15 °C 6.4 °C 1015.0 hPa Sur 5.8 km/h 9.7 km/h 56.6% 0.0 mm
08:59 15.2 °C 6.5 °C 1015.2 hPa Sur 5.1 km/h 8 km/h 56.3% 0.0 mm
09:04 15.3 °C 6.6 °C 1015.2 hPa Sur 5 km/h 8 km/h 56.1% 0.0 mm
09:09 15.6 °C 7.1 °C 1015.2 hPa SSE 5 km/h 8 km/h 56.9% 0.0 mm
09:14 15.9 °C 7.9 °C 1015.2 hPa Oeste 5 km/h 7.4 km/h 59.1% 0.0 mm
09:19 16.2 °C 8.5 °C 1015.2 hPa ONO 3.6 km/h 8 km/h 60.3% 0.0 mm
09:24 16.4 °C 8.4 °C 1015.2 hPa OSO 3.2 km/h 8.4 km/h 59% 0.0 mm
09:29 16.5 °C 8.3 °C 1015.4 hPa SO 3.7 km/h 9.3 km/h 58.2% 0.0 mm
09:34 16.7 °C 8.8 °C 1015.4 hPa OSO 3.9 km/h 9.7 km/h 59.9% 0.0 mm
09:39 16.8 °C 9.2 °C 1015.4 hPa OSO 4.5 km/h 8 km/h 61% 0.0 mm
09:44 17.1 °C 9.7 °C 1015.5 hPa North 4.7 km/h 8 km/h 61.9% 0.0 mm
09:49 17.5 °C 9.9 °C 1015.5 hPa NE 4 km/h 8 km/h 61.1% 0.0 mm
09:54 17.8 °C 10.3 °C 1015.5 hPa NO 3.9 km/h 10 km/h 61.5% 0.0 mm
09:59 17.8 °C 10.7 °C 1015.5 hPa North 3.9 km/h 9.7 km/h 63.1% 0.0 mm
10:04 17.9 °C 10.8 °C 1015.5 hPa Este 3.9 km/h 8 km/h 63% 0.0 mm
10:09 18.1 °C 11 °C 1015.5 hPa NNO 3.3 km/h 11.1 km/h 63.1% 0.0 mm
10:14 18.2 °C 11.3 °C 1015.5 hPa NNE 3.2 km/h 11.9 km/h 64% 0.0 mm
10:19 18.4 °C 11.5 °C 1015.5 hPa NNE 4.5 km/h 11.3 km/h 64% 0.0 mm
10:24 18.5 °C 11.6 °C 1015.5 hPa NNE 5 km/h 11.9 km/h 64.1% 0.0 mm
10:29 18.5 °C 11.6 °C 1015.5 hPa NE 5.6 km/h 18.5 km/h 64.3% 0.0 mm
10:34 18.5 °C 11.8 °C 1015.4 hPa NNO 5.8 km/h 19.3 km/h 65% 0.0 mm
10:39 18.7 °C 11.8 °C 1015.4 hPa NNE 6.3 km/h 9.7 km/h 64.2% 0.0 mm
10:44 18.8 °C 11.7 °C 1015.4 hPa NNO 6.5 km/h 11.1 km/h 63.5% 0.0 mm
10:49 18.7 °C 11.7 °C 1015.4 hPa Oeste 5.4 km/h 11.3 km/h 63.6% 0.0 mm
10:54 18.5 °C 11.6 °C 1015.4 hPa Oeste 5 km/h 11.3 km/h 64% 0.0 mm
10:59 18.5 °C 11.7 °C 1015.4 hPa ONO 6.2 km/h 11.9 km/h 64.6% 0.0 mm
11:04 18.6 °C 11.7 °C 1015.4 hPa ONO 6.5 km/h 11.3 km/h 64.2% 0.0 mm
11:09 18.7 °C 11.5 °C 1015.4 hPa ONO 5.9 km/h 11.3 km/h 63% 0.0 mm
11:14 19 °C 11.4 °C 1015.4 hPa NNO 5.8 km/h 14.8 km/h 61.5% 0.0 mm
11:19 19.2 °C 11.2 °C 1015.3 hPa NNE 6.3 km/h 14.5 km/h 60% 0.0 mm
11:24 19.2 °C 11.2 °C 1015.3 hPa NO 6.5 km/h 12.9 km/h 59.8% 0.0 mm
11:29 19.4 °C 11.2 °C 1015.4 hPa NNO 5.1 km/h 14.8 km/h 59.4% 0.0 mm
11:34 19.4 °C 11.2 °C 1015.4 hPa Oeste 4.7 km/h 14.5 km/h 59% 0.0 mm
11:39 19.3 °C 11.3 °C 1015.4 hPa ONO 6.4 km/h 14.8 km/h 59.6% 0.0 mm
11:44 19.3 °C 11.3 °C 1015.4 hPa ONO 6.9 km/h 14.5 km/h 60% 0.0 mm
11:49 19.4 °C 11.4 °C 1015.4 hPa NO 4 km/h 15.6 km/h 59.8% 0.0 mm
11:54 19.2 °C 11.2 °C 1015.4 hPa NO 3.2 km/h 16.1 km/h 59.9% 0.0 mm
11:59 19.2 °C 11.2 °C 1015.5 hPa ONO 8.5 km/h 14.8 km/h 60% 0.0 mm
12:04 19.2 °C 11.1 °C 1015.5 hPa ONO 10 km/h 13.7 km/h 59.4% 0.0 mm
12:09 19.2 °C 11.3 °C 1015.5 hPa North 7.8 km/h 14.5 km/h 60% 0.0 mm
12:14 19.3 °C 11.4 °C 1015.5 hPa NNE 6.9 km/h 9.7 km/h 60% 0.0 mm
12:19 19.4 °C 11.2 °C 1015.4 hPa NNO 5.3 km/h 11.9 km/h 59.2% 0.0 mm
12:24 19.3 °C 11.1 °C 1015.4 hPa NO 4.7 km/h 15.6 km/h 59% 0.0 mm
12:29 19.2 °C 11 °C 1015.4 hPa ONO 7.3 km/h 16.1 km/h 59% 0.0 mm
12:34 19.2 °C 11 °C 1015.3 hPa Oeste 8.4 km/h 14.5 km/h 59% 0.0 mm
12:39 19.5 °C 11.1 °C 1015.3 hPa Oeste 6.4 km/h 11.1 km/h 58.2% 0.0 mm
12:44 19.9 °C 11.3 °C 1015.3 hPa SE 5.8 km/h 13 km/h 57.7% 0.0 mm
12:49 20.1 °C 11.3 °C 1015.2 hPa NNE 5.2 km/h 14.8 km/h 56.8% 0.0 mm
12:54 19.9 °C 11.2 °C 1015.2 hPa NNE 5 km/h 14.5 km/h 57.4% 0.0 mm
12:59 19.8 °C 11.3 °C 1015.2 hPa ENE 5.6 km/h 9.7 km/h 58% 0.0 mm
13:04 20.2 °C 11.2 °C 1015.1 hPa ENE 5.8 km/h 9.7 km/h 56.3% 0.0 mm
13:09 20.5 °C 11 °C 1015.1 hPa Este 5.1 km/h 14.8 km/h 54.6% 0.0 mm
13:14 20.8 °C 11.2 °C 1015.1 hPa NE 5 km/h 18.3 km/h 54.4% 0.0 mm
13:19 20.8 °C 11.3 °C 1014.9 hPa NNE 8.3 km/h 19.3 km/h 54.4% 0.0 mm
13:24 20.8 °C 11.1 °C 1014.9 hPa North 9.5 km/h 19.3 km/h 54% 0.0 mm
13:29 20.9 °C 11.2 °C 1014.9 hPa NE 8 km/h 14.5 km/h 53.7% 0.0 mm
13:34 21.1 °C 11.3 °C 1014.8 hPa NE 7.6 km/h 18.5 km/h 53.8% 0.0 mm
13:39 21.1 °C 11.5 °C 1014.8 hPa NE 8.4 km/h 22.5 km/h 54.3% 0.0 mm
13:44 21.2 °C 11.5 °C 1014.8 hPa NNE 8.7 km/h 22.5 km/h 54% 0.0 mm
13:49 21.2 °C 11.4 °C 1014.8 hPa North 9.6 km/h 22.5 km/h 53.3% 0.0 mm
13:54 21.1 °C 11.1 °C 1014.8 hPa North 10 km/h 19.3 km/h 52.8% 0.0 mm
13:59 21.2 °C 11 °C 1014.8 hPa NNE 8.7 km/h 16.7 km/h 52.3% 0.0 mm
14:04 21.2 °C 11 °C 1014.5 hPa NNE 8.4 km/h 25.1 km/h 52.1% 0.0 mm
14:09 21.2 °C 11 °C 1014.5 hPa NE 9.3 km/h 25.9 km/h 52.4% 0.0 mm
14:14 21 °C 10.9 °C 1014.5 hPa ENE 9.5 km/h 20.9 km/h 52.3% 0.0 mm
14:19 21 °C 10.8 °C 1014.5 hPa ENE 9.8 km/h 22.5 km/h 52% 0.0 mm
14:24 21.2 °C 11 °C 1014.5 hPa NNE 10 km/h 22.5 km/h 52.3% 0.0 mm
14:29 21.2 °C 10.9 °C 1014.5 hPa NNE 10.8 km/h 22.5 km/h 52% 0.0 mm
14:34 21.3 °C 11.1 °C 1014.4 hPa NNE 11.1 km/h 22.5 km/h 52.4% 0.0 mm
14:39 21.4 °C 11 °C 1014.4 hPa NNE 14 km/h 24.1 km/h 51.7% 0.0 mm
14:44 21.5 °C 11.3 °C 1014.4 hPa NE 14.8 km/h 27 km/h 52.4% 0.0 mm
14:49 21.3 °C 11.2 °C 1014.4 hPa NE 14.2 km/h 31.5 km/h 52.3% 0.0 mm
14:54 21.3 °C 11.5 °C 1014.4 hPa ENE 14 km/h 33.3 km/h 53.8% 0.0 mm
14:59 21.4 °C 11.7 °C 1014.4 hPa NE 14.7 km/h 33.8 km/h 53.9% 0.0 mm
15:04 21.4 °C 11.6 °C 1014.3 hPa NE 14.8 km/h 25.9 km/h 53.5% 0.0 mm
15:09 21.6 °C 11.9 °C 1014.3 hPa ENE 13.5 km/h 25.7 km/h 54% 0.0 mm
15:14 21.5 °C 11.7 °C 1014.3 hPa ENE 13 km/h 24.1 km/h 53.7% 0.0 mm
15:19 21.3 °C 11.9 °C 1014.3 hPa NE 13 km/h 33.3 km/h 55.1% 0.0 mm
15:24 20.7 °C 11.8 °C 1014.3 hPa NE 13 km/h 33.8 km/h 56.6% 0.0 mm
15:29 20.3 °C 11.6 °C 1014.4 hPa NE 18.7 km/h 33.8 km/h 57.3% 0.0 mm
15:34 20.5 °C 11.7 °C 1014.4 hPa NE 20.1 km/h 41.2 km/h 57.4% 0.0 mm
15:39 20.5 °C 11.7 °C 1014.4 hPa NE 17.5 km/h 41.8 km/h 57% 0.0 mm
15:44 20.7 °C 11.6 °C 1014.4 hPa ENE 16.4 km/h 33.8 km/h 56.3% 0.0 mm
15:49 20.6 °C 11.5 °C 1014.4 hPa ENE 16.2 km/h 31.7 km/h 56% 0.0 mm
15:54 20.6 °C 11.6 °C 1014.4 hPa NE 16.1 km/h 32.2 km/h 56.1% 0.0 mm
15:59 20.7 °C 11.5 °C 1014.4 hPa NE 17 km/h 28.6 km/h 55.4% 0.0 mm
16:04 20.7 °C 11.7 °C 1014.3 hPa NE 17.2 km/h 33.3 km/h 56.2% 0.0 mm
16:09 20.7 °C 11.9 °C 1014.3 hPa NE 16.6 km/h 33.8 km/h 57.1% 0.0 mm
16:14 20.6 °C 11.7 °C 1014.5 hPa NE 16.4 km/h 32.3 km/h 56.6% 0.0 mm
16:19 20.4 °C 11.6 °C 1014.5 hPa NE 16.4 km/h 33.8 km/h 57% 0.0 mm
16:24 20.4 °C 11.6 °C 1014.5 hPa NE 16.4 km/h 33.8 km/h 56.8% 0.0 mm
16:29 20.4 °C 11.6 °C 1014.5 hPa NE 16.4 km/h 33.8 km/h 57.2% 0.0 mm
16:34 20.3 °C 11.6 °C 1014.5 hPa NE 16.4 km/h 32.2 km/h 57.4% 0.0 mm
16:39 20.2 °C 11.7 °C 1014.5 hPa NE 17 km/h 32.2 km/h 58% 0.0 mm
16:44 20.2 °C 11.6 °C 1014.5 hPa ENE 17.2 km/h 30.6 km/h 58% 0.0 mm
16:49 20.2 °C 11.8 °C 1014.4 hPa ENE 17.2 km/h 32.3 km/h 58.5% 0.0 mm
16:54 20.2 °C 11.7 °C 1014.4 hPa NE 17.2 km/h 33.8 km/h 58% 0.0 mm
16:59 20.2 °C 11.7 °C 1014.4 hPa NE 16.3 km/h 30.6 km/h 58% 0.0 mm
17:04 20.1 °C 11.6 °C 1014.4 hPa NE 16.1 km/h 30.6 km/h 58.1% 0.0 mm
17:09 20 °C 11.7 °C 1014.4 hPa ENE 16.9 km/h 29 km/h 59% 0.0 mm
17:14 20.1 °C 11.9 °C 1014.4 hPa ENE 17.2 km/h 27.4 km/h 59% 0.0 mm
17:19 20.2 °C 11.9 °C 1014.4 hPa Este 15.3 km/h 33.3 km/h 58.9% 0.0 mm
17:24 20 °C 11.9 °C 1014.4 hPa ENE 14.8 km/h 33.8 km/h 59.8% 0.0 mm
17:29 19.9 °C 11.9 °C 1014.4 hPa NE 17.4 km/h 29 km/h 60% 0.0 mm
17:34 19.9 °C 11.9 °C 1014.4 hPa NE 18.4 km/h 30.9 km/h 60% 0.0 mm
17:39 19.8 °C 11.8 °C 1014.4 hPa NE 17.6 km/h 32.2 km/h 60% 0.0 mm
17:44 19.6 °C 11.8 °C 1014.5 hPa NE 17.2 km/h 32.2 km/h 60.5% 0.0 mm
17:49 19.7 °C 11.9 °C 1014.5 hPa NE 16.3 km/h 27.4 km/h 60.8% 0.0 mm
17:54 19.7 °C 12 °C 1014.5 hPa NE 16.1 km/h 26.2 km/h 61.2% 0.0 mm
17:59 19.7 °C 12 °C 1014.6 hPa NE 16.1 km/h 29.8 km/h 61% 0.0 mm
18:04 19.7 °C 11.9 °C 1014.6 hPa NE 16.1 km/h 30.6 km/h 60.9% 0.0 mm
18:09 19.6 °C 11.7 °C 1014.6 hPa ENE 15.7 km/h 30.6 km/h 60.4% 0.0 mm
18:14 19.5 °C 11.7 °C 1014.6 hPa NE 15.6 km/h 30.6 km/h 60.9% 0.0 mm
18:19 19.5 °C 11.7 °C 1014.6 hPa Este 16 km/h 30.9 km/h 61% 0.0 mm
18:24 19.4 °C 11.7 °C 1014.6 hPa ENE 16.1 km/h 32.2 km/h 61% 0.0 mm
18:29 19.4 °C 11.8 °C 1014.6 hPa NE 16.1 km/h 29 km/h 61.2% 0.0 mm
18:34 19.5 °C 11.7 °C 1014.6 hPa ENE 16.1 km/h 31.7 km/h 60.7% 0.0 mm
18:39 19.3 °C 11.6 °C 1014.6 hPa NE 16.1 km/h 33.5 km/h 61% 0.0 mm
18:44 19.2 °C 11.7 °C 1014.7 hPa NE 16.1 km/h 33.8 km/h 61.7% 0.0 mm
18:49 19.2 °C 11.5 °C 1014.7 hPa ENE 17 km/h 31.5 km/h 61% 0.0 mm
18:54 19.2 °C 11.5 °C 1014.7 hPa ENE 17.2 km/h 32.2 km/h 61.1% 0.0 mm
18:59 19.1 °C 11.5 °C 1014.8 hPa NE 16.3 km/h 25.9 km/h 61.4% 0.0 mm
19:04 19.1 °C 11.7 °C 1014.8 hPa NE 16.1 km/h 29.8 km/h 62% 0.0 mm
19:09 19.1 °C 11.6 °C 1014.8 hPa NE 15.1 km/h 30.6 km/h 62% 0.0 mm
19:14 18.9 °C 11.5 °C 1015.0 hPa NNE 14.8 km/h 31.7 km/h 62.3% 0.0 mm
19:19 18.7 °C 11.5 °C 1015.0 hPa NE 15.4 km/h 32.2 km/h 62.7% 0.0 mm
19:24 18.7 °C 11.3 °C 1015.0 hPa NE 15.6 km/h 29.6 km/h 62.1% 0.0 mm
19:29 18.6 °C 11.4 °C 1015.0 hPa NE 16 km/h 29 km/h 62.8% 0.0 mm
19:34 18.6 °C 11.2 °C 1015.0 hPa NE 16.1 km/h 22.5 km/h 62.1% 0.0 mm
19:39 18.4 °C 11.2 °C 1015.0 hPa NE 14.5 km/h 28.2 km/h 62.8% 0.0 mm
19:44 18.3 °C 11.1 °C 1015.1 hPa ENE 13.7 km/h 27.4 km/h 63% 0.0 mm
19:49 18.3 °C 11.1 °C 1015.1 hPa NE 13.9 km/h 25.9 km/h 63% 0.0 mm
19:54 18.2 °C 11.1 °C 1015.1 hPa NE 14 km/h 28.2 km/h 63.4% 0.0 mm
19:59 18.1 °C 11.3 °C 1015.1 hPa NE 14.7 km/h 27.8 km/h 64.8% 0.0 mm
20:04 18 °C 11.3 °C 1015.0 hPa NE 14.8 km/h 22.5 km/h 65% 0.0 mm
20:09 17.8 °C 11.3 °C 1015.0 hPa NE 13.2 km/h 24.1 km/h 65.6% 0.0 mm
20:14 17.8 °C 11.3 °C 1015.2 hPa NE 12.2 km/h 24.1 km/h 66% 0.0 mm
20:19 17.7 °C 11.2 °C 1015.2 hPa NNE 12 km/h 27.8 km/h 66% 0.0 mm
20:24 17.5 °C 11.3 °C 1015.2 hPa NE 11.9 km/h 27.4 km/h 66.8% 0.0 mm
20:29 17.3 °C 11.2 °C 1015.4 hPa NE 13.3 km/h 28.2 km/h 67% 0.0 mm
20:34 17.3 °C 11.3 °C 1015.4 hPa NE 13.7 km/h 17.2 km/h 68% 0.0 mm
20:39 17.2 °C 11.2 °C 1015.4 hPa NNE 12.4 km/h 20.9 km/h 68% 0.0 mm
20:44 17.1 °C 11.4 °C 1015.6 hPa NE 11.9 km/h 20.9 km/h 68.9% 0.0 mm
20:49 17 °C 11.3 °C 1015.6 hPa NE 10.6 km/h 19 km/h 69.1% 0.0 mm
20:54 16.9 °C 11.4 °C 1015.6 hPa NE 10.3 km/h 19.3 km/h 70% 0.0 mm
20:59 16.8 °C 11.3 °C 1015.8 hPa NE 9.7 km/h 20.9 km/h 70.2% 0.0 mm
21:04 16.7 °C 11.4 °C 1015.8 hPa NE 9.5 km/h 20.9 km/h 71% 0.0 mm
21:09 16.6 °C 11.4 °C 1015.8 hPa NE 10.1 km/h 20.9 km/h 71.4% 0.0 mm
21:14 16.6 °C 11.6 °C 1016.0 hPa NE 10.3 km/h 19.3 km/h 72% 0.0 mm
21:19 16.5 °C 11.5 °C 1016.0 hPa ENE 8.9 km/h 14.8 km/h 72.5% 0.0 mm
21:24 16.4 °C 11.6 °C 1016.0 hPa ENE 8.4 km/h 14.5 km/h 73% 0.0 mm
21:29 16.3 °C 11.5 °C 1016.2 hPa NE 7.3 km/h 13 km/h 73% 0.0 mm
21:34 16.3 °C 11.6 °C 1016.2 hPa NNE 6.9 km/h 15.6 km/h 73.9% 0.0 mm
21:39 16.2 °C 11.6 °C 1016.2 hPa NE 6.9 km/h 17.2 km/h 74% 0.0 mm
21:44 16.2 °C 11.6 °C 1016.4 hPa NE 6.9 km/h 17.7 km/h 74.4% 0.0 mm
21:49 16.1 °C 11.7 °C 1016.4 hPa NE 6.9 km/h 13 km/h 75% 0.0 mm
21:54 16.1 °C 11.7 °C 1016.4 hPa NE 6.9 km/h 13.7 km/h 75% 0.0 mm
21:59 16.1 °C 11.8 °C 1016.6 hPa NE 6.9 km/h 18.5 km/h 75.9% 0.0 mm
22:04 16 °C 11.7 °C 1016.6 hPa NE 6.9 km/h 19.3 km/h 76% 0.0 mm
22:09 15.9 °C 11.8 °C 1016.6 hPa NE 8.2 km/h 17.2 km/h 76.7% 0.0 mm
22:14 15.8 °C 11.8 °C 1016.7 hPa NE 8.7 km/h 17.7 km/h 77% 0.0 mm
22:19 15.8 °C 11.9 °C 1016.7 hPa NE 9.7 km/h 16.7 km/h 77.6% 0.0 mm
22:24 15.8 °C 11.9 °C 1016.7 hPa NNE 10 km/h 16.1 km/h 78% 0.0 mm
22:29 15.7 °C 11.9 °C 1017.1 hPa NNE 8.7 km/h 13 km/h 78% 0.0 mm
22:34 15.7 °C 11.9 °C 1017.1 hPa NNE 8.4 km/h 13 km/h 78% 0.0 mm
22:39 15.6 °C 11.8 °C 1017.1 hPa NNE 8.4 km/h 13 km/h 78% 0.0 mm
22:44 15.5 °C 11.8 °C 1017.4 hPa NNE 8.4 km/h 12.9 km/h 78.3% 0.0 mm
22:49 15.4 °C 11.8 °C 1017.4 hPa NNE 8.4 km/h 13 km/h 79% 0.0 mm
22:54 15.5 °C 11.9 °C 1017.4 hPa NE 8.4 km/h 13 km/h 79% 0.0 mm
22:59 15.5 °C 11.9 °C 1017.6 hPa NE 7.7 km/h 13 km/h 79% 0.0 mm
23:04 15.5 °C 11.9 °C 1017.6 hPa NE 7.6 km/h 14.8 km/h 79% 0.0 mm
23:09 15.5 °C 11.9 °C 1017.6 hPa NE 6.8 km/h 14.8 km/h 79.1% 0.0 mm
23:14 15.5 °C 12 °C 1017.8 hPa NE 6.4 km/h 15.6 km/h 80% 0.0 mm
23:19 15.4 °C 11.9 °C 1017.8 hPa NE 8 km/h 16.1 km/h 80% 0.0 mm
23:24 15.4 °C 11.9 °C 1017.8 hPa NE 8.4 km/h 14.5 km/h 80% 0.0 mm
23:29 15.3 °C 12.1 °C 1017.9 hPa NNE 7.9 km/h 11.9 km/h 80.8% 0.0 mm
23:34 15.3 °C 12.1 °C 1017.9 hPa NNE 7.6 km/h 13 km/h 81% 0.0 mm
23:39 15.3 °C 12 °C 1017.9 hPa NE 8.1 km/h 13 km/h 81% 0.0 mm
23:44 15.2 °C 11.9 °C 1017.9 hPa NE 8.4 km/h 12.9 km/h 81% 0.0 mm
23:49 15.2 °C 12.1 °C 1017.9 hPa NNE 7.8 km/h 11.3 km/h 81.6% 0.0 mm
23:54 15.2 °C 12 °C 1017.9 hPa NNE 7.6 km/h 9.7 km/h 81.3% 0.0 mm
23:59 15.2 °C 11.9 °C 1018.0 hPa NE 6.2 km/h 9.7 km/h 81% 0.0 mm
Murcia-Puente Tocinos, España
Compliments of Weather Underground - 3 mb

La estación de MeteoMurcia.com, publica sus datos en los siguientes proyectos:

Weather Underground PWS IMURCIAP2 Meteoclimatic www.awekas.at

W3Counter
Web Analytics